Time;durP1;ratioP1;P1;durP2;ratioP2;P2;SDS_P1;SDS_P2;PMS_P1;PMS_P2;Temp;Humidity;BMP_temperature;BMP_pressure;BME280_temperature;BME280_humidity;BME280_pressure;Samples;Min_cycle;Max_cycle;Signal;HPM_P1;HPM_P2
2022/01/12 00:01:48;;;;;;;33.20;13.23;;;;;;;;;;5067402;28;21007;-84
2022/01/12 00:04:15;;;;;;;43.93;13.93;;;;;;;;;;5065884;28;20504;-83
2022/01/12 00:06:42;;;;;;;42.33;14.40;;;;;;;;;;5068158;28;20456;-82
2022/01/12 00:09:09;;;;;;;44.23;15.13;;;;;;;;;;5069035;28;20888;-82
2022/01/12 00:11:37;;;;;;;37.13;13.57;;;;;;;;;;5066622;28;20990;-83
2022/01/12 00:14:05;;;;;;;38.77;13.67;;;;;;;;;;5068337;28;20487;-82
2022/01/12 00:16:32;;;;;;;39.13;13.17;;;;;;;;;;5073273;28;20476;-83
2022/01/12 00:19:01;;;;;;;30.70;12.37;;;;;;;;;;5069135;28;21672;-83
2022/01/12 00:21:28;;;;;;;35.37;13.27;;;;;;;;;;5070198;28;20547;-83
2022/01/12 00:23:56;;;;;;;33.37;12.30;;;;;;;;;;5068914;28;20488;-83
2022/01/12 00:26:40;;;;;;;35.00;13.37;;;;;;;;;;5067213;28;20460;-83
2022/01/12 00:34:39;;;;;;;30.10;12.33;;;;;;;;;;5069990;28;20498;-84
2022/01/12 00:37:06;;;;;;;32.00;12.67;;;;;;;;;;5071176;28;20686;-83
2022/01/12 00:39:33;;;;;;;35.27;14.00;;;;;;;;;;5071131;28;20457;-84
2022/01/12 00:42:00;;;;;;;32.93;12.57;;;;;;;;;;5069685;28;20543;-84
2022/01/12 00:44:33;;;;;;;39.37;14.40;;;;;;;;;;5069019;28;20564;-83
2022/01/12 00:47:01;;;;;;;31.73;12.87;;;;;;;;;;5072809;28;20551;-84
2022/01/12 00:49:28;;;;;;;29.43;11.53;;;;;;;;;;5073203;28;20471;-82
2022/01/12 00:51:57;;;;;;;33.73;13.17;;;;;;;;;;5072889;28;20491;-83
2022/01/12 00:54:25;;;;;;;33.43;12.50;;;;;;;;;;5072698;28;20471;-82
2022/01/12 00:56:52;;;;;;;31.20;11.43;;;;;;;;;;5074159;28;20470;-82
2022/01/12 00:59:19;;;;;;;28.90;11.70;;;;;;;;;;5074806;28;20452;-82
2022/01/12 01:01:46;;;;;;;31.37;11.77;;;;;;;;;;5074986;28;20464;-83
2022/01/12 01:04:14;;;;;;;29.73;10.77;;;;;;;;;;5077406;28;20479;-83
2022/01/12 01:06:42;;;;;;;27.23;10.60;;;;;;;;;;5077628;28;20487;-84
2022/01/12 01:09:10;;;;;;;24.43;10.60;;;;;;;;;;5075527;28;20537;-84
2022/01/12 01:11:37;;;;;;;25.47;10.57;;;;;;;;;;5073611;28;20463;-84
2022/01/12 01:14:14;;;;;;;24.97;11.37;;;;;;;;;;5073512;28;20885;-85
2022/01/12 01:17:04;;;;;;;31.73;11.53;;;;;;;;;;5075867;28;20606;-84
2022/01/12 01:27:47;;;;;;;32.23;11.37;;;;;;;;;;5077245;28;20494;-84
2022/01/12 01:30:15;;;;;;;25.53;10.80;;;;;;;;;;5088803;28;20448;-84
2022/01/12 01:32:43;;;;;;;27.70;11.67;;;;;;;;;;5090516;28;20475;-83
2022/01/12 01:35:11;;;;;;;23.83;10.23;;;;;;;;;;5072458;28;20574;-83
2022/01/12 01:37:40;;;;;;;25.30;10.00;;;;;;;;;;5074541;28;20481;-82
2022/01/12 01:40:10;;;;;;;24.10;9.73;;;;;;;;;;5074035;28;20491;-83
2022/01/12 01:42:54;;;;;;;24.70;10.37;;;;;;;;;;5073791;28;20460;-83
2022/01/12 01:53:39;;;;;;;31.70;10.07;;;;;;;;;;5072795;28;20859;-82
2022/01/12 01:56:08;;;;;;;26.40;9.37;;;;;;;;;;5069124;28;20461;-81
2022/01/12 01:58:36;;;;;;;25.03;10.13;;;;;;;;;;5069539;28;20551;-81
2022/01/12 02:01:03;;;;;;;28.00;9.97;;;;;;;;;;5072124;28;20453;-82
2022/01/12 02:03:30;;;;;;;21.20;8.53;;;;;;;;;;5070989;28;20472;-82
2022/01/12 02:05:59;;;;;;;22.47;9.90;;;;;;;;;;5068908;28;20458;-82
2022/01/12 02:08:26;;;;;;;22.47;8.77;;;;;;;;;;5070535;28;20449;-83
2022/01/12 02:10:54;;;;;;;24.70;9.43;;;;;;;;;;5071313;28;20909;-82
2022/01/12 02:13:24;;;;;;;22.83;9.33;;;;;;;;;;5073709;28;20464;-82
2022/01/12 02:15:51;;;;;;;24.07;9.47;;;;;;;;;;5069809;28;20492;-82
2022/01/12 02:18:31;;;;;;;24.67;8.60;;;;;;;;;;5068939;28;20577;-82
2022/01/12 02:35:17;;;;;;;24.70;8.63;;;;;;;;;;5070166;28;20476;-81
2022/01/12 02:40:35;;;;;;;27.07;8.93;;;;;;;;;;5069953;28;20445;-82
2022/01/12 02:43:10;;;;;;;29.53;8.87;;;;;;;;;;5070037;28;20441;-82
2022/01/12 02:51:12;;;;;;;22.83;9.00;;;;;;;;;;5070161;28;20490;-83
2022/01/12 02:53:42;;;;;;;22.30;8.23;;;;;;;;;;5071609;28;20464;-82
2022/01/12 02:56:09;;;;;;;18.00;7.83;;;;;;;;;;5073451;28;20456;-82
2022/01/12 02:58:37;;;;;;;32.50;8.03;;;;;;;;;;5072076;28;20503;-81
2022/01/12 03:03:52;;;;;;;24.47;9.00;;;;;;;;;;5057866;28;20834;-82
2022/01/12 03:06:22;;;;;;;22.57;9.17;;;;;;;;;;5072409;28;20494;-82
2022/01/12 03:08:51;;;;;;;20.40;7.87;;;;;;;;;;5070443;28;20497;-83
2022/01/12 03:11:20;;;;;;;29.10;8.53;;;;;;;;;;5067938;28;20472;-81
2022/01/12 03:13:48;;;;;;;22.17;8.97;;;;;;;;;;5067985;28;20476;-83
2022/01/12 03:16:17;;;;;;;21.10;8.87;;;;;;;;;;5070464;28;20460;-83
2022/01/12 03:18:45;;;;;;;22.43;8.20;;;;;;;;;;5072833;28;20484;-83
2022/01/12 03:21:12;;;;;;;21.50;8.20;;;;;;;;;;5069075;28;20544;-83
2022/01/12 03:23:40;;;;;;;27.33;8.83;;;;;;;;;;5073512;28;20488;-83
2022/01/12 03:26:10;;;;;;;21.43;8.77;;;;;;;;;;5074541;28;20453;-83
2022/01/12 03:28:39;;;;;;;24.40;9.17;;;;;;;;;;5075144;28;20456;-83
2022/01/12 03:31:10;;;;;;;22.70;8.97;;;;;;;;;;5071027;28;20456;-83
2022/01/12 03:33:51;;;;;;;20.97;8.37;;;;;;;;;;5072775;28;20845;-84
2022/01/12 03:36:41;;;;;;;20.40;8.83;;;;;;;;;;5071411;28;20979;-82
2022/01/12 03:39:10;;;;;;;23.10;8.77;;;;;;;;;;5070738;28;20487;-82
2022/01/12 03:41:39;;;;;;;23.83;9.53;;;;;;;;;;5067932;28;20533;-81
2022/01/12 03:44:07;;;;;;;21.37;8.57;;;;;;;;;;5068752;28;20571;-83
2022/01/12 03:46:36;;;;;;;26.67;9.57;;;;;;;;;;5073475;28;20476;-83
2022/01/12 03:49:04;;;;;;;22.87;9.00;;;;;;;;;;5068686;28;20441;-83
2022/01/12 03:51:31;;;;;;;21.20;8.70;;;;;;;;;;5073903;28;20931;-84
2022/01/12 03:54:00;;;;;;;23.63;9.13;;;;;;;;;;5073710;28;20492;-84
2022/01/12 03:56:27;;;;;;;21.57;8.10;;;;;;;;;;5070129;28;20949;-83
2022/01/12 03:58:56;;;;;;;22.33;8.10;;;;;;;;;;5070509;28;20480;-84
2022/01/12 04:01:23;;;;;;;20.17;8.73;;;;;;;;;;5072070;28;20535;-82
2022/01/12 04:03:59;;;;;;;24.90;8.67;;;;;;;;;;5071731;28;20483;-82
2022/01/12 04:09:11;;;;;;;20.43;8.63;;;;;;;;;;5074772;28;20486;-82
2022/01/12 04:11:38;;;;;;;27.00;9.43;;;;;;;;;;5072677;28;20465;-82
2022/01/12 04:14:07;;;;;;;26.07;9.27;;;;;;;;;;5072607;28;20523;-84
2022/01/12 04:16:35;;;;;;;20.63;8.60;;;;;;;;;;5072611;28;20528;-82
2022/01/12 04:19:02;;;;;;;22.87;8.83;;;;;;;;;;5069710;28;20487;-83
2022/01/12 04:21:31;;;;;;;21.43;8.93;;;;;;;;;;5077925;28;20460;-83
2022/01/12 04:23:59;;;;;;;19.73;8.70;;;;;;;;;;5078500;28;20487;-83
2022/01/12 04:26:27;;;;;;;21.17;8.67;;;;;;;;;;5066008;22;20502;-79
2022/01/12 04:28:54;;;;;;;25.60;9.17;;;;;;;;;;5041524;28;20434;-77
2022/01/12 04:31:23;;;;;;;21.47;8.33;;;;;;;;;;5040020;28;20470;-77
2022/01/12 04:33:50;;;;;;;23.47;8.83;;;;;;;;;;5038284;28;20565;-77
2022/01/12 04:36:19;;;;;;;22.43;8.90;;;;;;;;;;5041640;28;21005;-77
2022/01/12 04:38:46;;;;;;;22.83;7.77;;;;;;;;;;5039679;28;20832;-77
2022/01/12 04:41:14;;;;;;;21.20;7.73;;;;;;;;;;5044518;28;20465;-77
2022/01/12 04:43:42;;;;;;;20.17;8.20;;;;;;;;;;5043679;28;20515;-78
2022/01/12 04:46:23;;;;;;;21.63;8.67;;;;;;;;;;5049069;28;20481;-78
2022/01/12 04:49:08;;;;;;;27.50;9.20;;;;;;;;;;5044133;28;20481;-78
2022/01/12 04:51:35;;;;;;;21.40;8.27;;;;;;;;;;5046066;28;20462;-78
2022/01/12 04:54:03;;;;;;;25.20;8.20;;;;;;;;;;5048046;28;20457;-79
2022/01/12 04:56:30;;;;;;;22.20;8.67;;;;;;;;;;5047102;28;20489;-78
2022/01/12 04:58:58;;;;;;;22.97;8.20;;;;;;;;;;5044399;28;20489;-78
2022/01/12 05:01:27;;;;;;;20.40;8.23;;;;;;;;;;5041348;28;20476;-78
2022/01/12 05:09:39;;;;;;;17.83;7.77;;;;;;;;;;5044960;28;20444;-78
2022/01/12 05:15:02;;;;;;;20.13;7.90;;;;;;;;;;5041556;28;20448;-78
2022/01/12 05:17:30;;;;;;;20.90;8.07;;;;;;;;;;5039447;28;21030;-78
2022/01/12 05:19:58;;;;;;;18.00;6.87;;;;;;;;;;5041762;28;20507;-78
2022/01/12 05:22:26;;;;;;;18.90;7.63;;;;;;;;;;5041883;28;20511;-78
2022/01/12 05:24:53;;;;;;;17.73;7.50;;;;;;;;;;5041698;28;20460;-78
2022/01/12 05:27:20;;;;;;;19.83;8.57;;;;;;;;;;5039613;28;20559;-77
2022/01/12 05:29:47;;;;;;;24.07;7.87;;;;;;;;;;5044218;28;20450;-78
2022/01/12 05:32:14;;;;;;;27.93;8.33;;;;;;;;;;5040313;28;20450;-78
2022/01/12 05:34:43;;;;;;;17.90;7.83;;;;;;;;;;5039523;28;20462;-78
2022/01/12 05:37:12;;;;;;;20.93;7.80;;;;;;;;;;5040453;28;20472;-77
2022/01/12 05:39:39;;;;;;;18.17;7.67;;;;;;;;;;5041371;28;20579;-77
2022/01/12 05:42:07;;;;;;;18.90;7.43;;;;;;;;;;5038022;28;20464;-77
2022/01/12 05:44:36;;;;;;;25.93;8.80;;;;;;;;;;5041305;28;20476;-77
2022/01/12 05:47:05;;;;;;;19.87;7.73;;;;;;;;;;5037393;28;21031;-77
2022/01/12 05:49:35;;;;;;;22.90;8.33;;;;;;;;;;5035595;28;20552;-77
2022/01/12 05:52:03;;;;;;;20.10;8.03;;;;;;;;;;5037635;28;20540;-77
2022/01/12 05:54:31;;;;;;;20.33;7.63;;;;;;;;;;5038952;28;21232;-77
2022/01/12 05:56:58;;;;;;;20.17;7.73;;;;;;;;;;5039880;28;20482;-77
2022/01/12 05:59:26;;;;;;;20.90;7.47;;;;;;;;;;5039239;28;20515;-77
2022/01/12 06:01:53;;;;;;;27.93;8.20;;;;;;;;;;5040465;28;20952;-78
2022/01/12 06:04:20;;;;;;;22.60;7.93;;;;;;;;;;5042291;28;21040;-77
2022/01/12 06:06:47;;;;;;;28.57;8.50;;;;;;;;;;5039915;28;20484;-77
2022/01/12 06:09:14;;;;;;;22.83;8.20;;;;;;;;;;5041243;28;21230;-77
2022/01/12 06:11:43;;;;;;;31.07;9.53;;;;;;;;;;5040418;28;21150;-77
2022/01/12 06:14:12;;;;;;;25.03;9.30;;;;;;;;;;5044092;28;20534;-78
2022/01/12 06:16:39;;;;;;;25.83;9.50;;;;;;;;;;5039363;28;20554;-78
2022/01/12 06:19:06;;;;;;;19.77;9.07;;;;;;;;;;5045131;28;20520;-78
2022/01/12 06:21:33;;;;;;;24.97;9.27;;;;;;;;;;5039704;28;20468;-78
2022/01/12 06:24:00;;;;;;;27.70;8.77;;;;;;;;;;5042992;28;20548;-78
2022/01/12 06:26:31;;;;;;;19.30;9.10;;;;;;;;;;5040252;28;20500;-78
2022/01/12 06:31:49;;;;;;;22.40;8.97;;;;;;;;;;5034641;28;20451;-78
2022/01/12 06:34:16;;;;;;;25.20;8.37;;;;;;;;;;5037301;28;20463;-77
2022/01/12 06:36:44;;;;;;;21.40;8.20;;;;;;;;;;5033640;28;20565;-78
2022/01/12 06:39:12;;;;;;;21.30;8.30;;;;;;;;;;5042206;28;20855;-77
2022/01/12 06:41:40;;;;;;;17.57;7.70;;;;;;;;;;5041982;28;20489;-77
2022/01/12 06:44:12;;;;;;;22.47;8.97;;;;;;;;;;5045674;28;20556;-79
2022/01/12 06:46:40;;;;;;;23.13;9.80;;;;;;;;;;5047490;28;20562;-78
2022/01/12 06:49:07;;;;;;;24.00;9.80;;;;;;;;;;5043572;28;20963;-78
2022/01/12 06:51:34;;;;;;;21.00;9.07;;;;;;;;;;5044182;28;20485;-78
2022/01/12 06:54:02;;;;;;;25.70;9.27;;;;;;;;;;5043899;28;20497;-79
2022/01/12 06:56:29;;;;;;;27.00;10.27;;;;;;;;;;5047864;28;20477;-79
2022/01/12 06:58:56;;;;;;;25.43;10.53;;;;;;;;;;5046463;28;20599;-76
2022/01/12 07:01:24;;;;;;;28.17;9.60;;;;;;;;;;5045096;28;20461;-76
2022/01/12 07:03:52;;;;;;;22.77;9.60;;;;;;;;;;5042832;28;20536;-77
2022/01/12 07:06:19;;;;;;;20.27;9.60;;;;;;;;;;5040706;28;21035;-77
2022/01/12 07:08:46;;;;;;;23.23;9.57;;;;;;;;;;5043548;28;20458;-77
2022/01/12 07:11:13;;;;;;;25.30;9.67;;;;;;;;;;5044372;28;21026;-77
2022/01/12 07:13:41;;;;;;;24.83;9.60;;;;;;;;;;5044451;28;20462;-77
2022/01/12 07:16:08;;;;;;;24.20;8.47;;;;;;;;;;5042435;28;20583;-77
2022/01/12 07:18:36;;;;;;;25.10;8.93;;;;;;;;;;5042005;28;20496;-77
2022/01/12 07:21:03;;;;;;;23.77;8.60;;;;;;;;;;5042249;28;20939;-77
2022/01/12 07:23:31;;;;;;;27.03;9.33;;;;;;;;;;5042763;28;20891;-77
2022/01/12 07:25:58;;;;;;;27.47;9.67;;;;;;;;;;5043356;28;20810;-77
2022/01/12 07:28:26;;;;;;;23.43;8.80;;;;;;;;;;5041551;28;20481;-77
2022/01/12 07:30:53;;;;;;;26.27;9.70;;;;;;;;;;5045622;28;20526;-77
2022/01/12 07:33:22;;;;;;;20.73;9.47;;;;;;;;;;5045145;28;20553;-77
2022/01/12 07:35:50;;;;;;;27.87;9.83;;;;;;;;;;5043202;28;20576;-76
2022/01/12 07:38:18;;;;;;;28.23;10.40;;;;;;;;;;5039129;28;20466;-76
2022/01/12 07:40:45;;;;;;;23.43;9.03;;;;;;;;;;5043622;28;20994;-77
2022/01/12 07:43:12;;;;;;;27.83;10.47;;;;;;;;;;5040706;28;20531;-77
2022/01/12 07:45:40;;;;;;;21.07;9.30;;;;;;;;;;5038926;28;20490;-77
2022/01/12 07:48:07;;;;;;;21.53;8.47;;;;;;;;;;5041245;28;20937;-77
2022/01/12 07:50:34;;;;;;;24.07;9.77;;;;;;;;;;5043560;28;20461;-77
2022/01/12 07:53:03;;;;;;;23.07;9.13;;;;;;;;;;5039461;28;20465;-77
2022/01/12 07:55:30;;;;;;;20.67;9.07;;;;;;;;;;5041944;28;20815;-77
2022/01/12 07:57:57;;;;;;;23.47;9.80;;;;;;;;;;5041581;28;20560;-76
2022/01/12 08:00:24;;;;;;;23.60;9.07;;;;;;;;;;5041417;28;20497;-77
2022/01/12 08:02:51;;;;;;;20.80;8.97;;;;;;;;;;5043623;28;20493;-77
2022/01/12 08:05:19;;;;;;;24.33;8.87;;;;;;;;;;5042087;28;20453;-76
2022/01/12 08:07:47;;;;;;;20.00;9.03;;;;;;;;;;5040346;28;20845;-77
2022/01/12 08:10:16;;;;;;;23.33;10.20;;;;;;;;;;5041938;28;20468;-77
2022/01/12 08:12:43;;;;;;;23.80;10.10;;;;;;;;;;5041604;28;20569;-77
2022/01/12 08:15:11;;;;;;;27.10;10.87;;;;;;;;;;5042206;28;20472;-77
2022/01/12 08:17:41;;;;;;;26.73;11.20;;;;;;;;;;5044305;28;20898;-79
2022/01/12 08:20:11;;;;;;;23.63;10.20;;;;;;;;;;5040647;28;20509;-78
2022/01/12 08:22:38;;;;;;;24.30;10.50;;;;;;;;;;5031721;28;20466;-78
2022/01/12 08:25:06;;;;;;;27.70;11.20;;;;;;;;;;5035971;28;20561;-78
2022/01/12 08:27:34;;;;;;;24.80;11.37;;;;;;;;;;5035451;28;20576;-79
2022/01/12 08:30:02;;;;;;;32.93;12.17;;;;;;;;;;5032478;28;20458;-77
2022/01/12 08:32:30;;;;;;;30.00;12.83;;;;;;;;;;5039622;28;20532;-79
2022/01/12 08:34:57;;;;;;;31.67;12.07;;;;;;;;;;5038756;28;20600;-78
2022/01/12 08:37:24;;;;;;;51.00;22.60;;;;;;;;;;5045184;28;20557;-78
2022/01/12 08:39:52;;;;;;;37.47;18.33;;;;;;;;;;5040788;28;20538;-78
2022/01/12 08:42:19;;;;;;;53.70;25.73;;;;;;;;;;5039928;28;20569;-79
2022/01/12 08:44:48;;;;;;;34.60;14.17;;;;;;;;;;5041119;28;20531;-78
2022/01/12 08:47:15;;;;;;;42.00;16.80;;;;;;;;;;5037417;28;20583;-78
2022/01/12 08:49:43;;;;;;;33.63;13.43;;;;;;;;;;5041716;28;20539;-77
2022/01/12 08:52:10;;;;;;;26.67;12.33;;;;;;;;;;5041745;28;20294;-77
2022/01/12 08:54:37;;;;;;;27.80;10.90;;;;;;;;;;5039789;28;20199;-77
2022/01/12 08:57:05;;;;;;;23.43;10.87;;;;;;;;;;5037704;28;20572;-78
2022/01/12 08:59:32;;;;;;;30.93;11.63;;;;;;;;;;5045388;28;20679;-78
2022/01/12 09:02:00;;;;;;;27.93;11.13;;;;;;;;;;5038484;28;20552;-79
2022/01/12 09:04:28;;;;;;;28.73;10.90;;;;;;;;;;5043320;28;20699;-78
2022/01/12 09:06:57;;;;;;;25.60;10.47;;;;;;;;;;5040000;28;20246;-78
2022/01/12 09:09:26;;;;;;;23.37;9.70;;;;;;;;;;5043835;28;20707;-78
2022/01/12 09:11:54;;;;;;;23.27;10.53;;;;;;;;;;5039132;28;20288;-78
2022/01/12 09:14:21;;;;;;;28.23;12.13;;;;;;;;;;5041282;28;20453;-78
2022/01/12 09:16:54;;;;;;;41.23;13.20;;;;;;;;;;5038083;28;20477;-78
2022/01/12 09:19:23;;;;;;;25.97;10.80;;;;;;;;;;5041021;28;20467;-79
2022/01/12 09:21:50;;;;;;;28.87;10.97;;;;;;;;;;5045672;28;20453;-78
2022/01/12 09:24:17;;;;;;;23.43;10.50;;;;;;;;;;5047608;28;20253;-79
2022/01/12 09:26:45;;;;;;;29.17;10.93;;;;;;;;;;5051957;28;20293;-78
2022/01/12 09:29:12;;;;;;;21.47;10.50;;;;;;;;;;5046675;28;20526;-77
2022/01/12 09:31:39;;;;;;;25.80;10.60;;;;;;;;;;5033384;28;20223;-77
2022/01/12 09:34:07;;;;;;;23.13;11.33;;;;;;;;;;5040583;28;20227;-77
2022/01/12 09:36:35;;;;;;;24.70;10.23;;;;;;;;;;5046805;28;20325;-77
2022/01/12 09:39:02;;;;;;;31.97;9.90;;;;;;;;;;5050710;28;20678;-77
2022/01/12 09:41:30;;;;;;;31.83;11.57;;;;;;;;;;5041662;28;20800;-77
2022/01/12 09:43:58;;;;;;;27.43;10.70;;;;;;;;;;5046379;28;20709;-77
2022/01/12 09:46:26;;;;;;;27.10;11.50;;;;;;;;;;5048603;28;20229;-78
2022/01/12 09:48:54;;;;;;;30.60;11.47;;;;;;;;;;5043699;28;20199;-77
2022/01/12 09:51:23;;;;;;;30.73;14.03;;;;;;;;;;5035476;28;20518;-78
2022/01/12 09:53:52;;;;;;;28.53;13.00;;;;;;;;;;5036813;28;20938;-79
2022/01/12 09:56:20;;;;;;;27.67;9.13;;;;;;;;;;5042029;28;20233;-81
2022/01/12 09:58:50;;;;;;;23.87;10.00;;;;;;;;;;5036759;28;20211;-81
2022/01/12 10:01:23;;;;;;;24.33;11.03;;;;;;;;;;5042348;28;20233;-80
2022/01/12 10:03:50;;;;;;;25.80;10.63;;;;;;;;;;5044214;28;20261;-80
2022/01/12 10:06:17;;;;;;;27.27;10.40;;;;;;;;;;5038982;28;20656;-79
2022/01/12 10:08:45;;;;;;;29.40;13.23;;;;;;;;;;5040062;28;20207;-80
2022/01/12 10:11:15;;;;;;;31.57;12.33;;;;;;;;;;5042623;28;20290;-80
2022/01/12 10:13:42;;;;;;;27.93;12.77;;;;;;;;;;5048761;28;20203;-80
2022/01/12 10:16:14;;;;;;;27.80;11.33;;;;;;;;;;5045113;28;20229;-80
2022/01/12 10:18:48;;;;;;;22.83;10.13;;;;;;;;;;5043170;28;20293;-81
2022/01/12 10:21:28;;;;;;;22.53;9.37;;;;;;;;;;5054697;28;20301;-81
2022/01/12 10:23:56;;;;;;;21.60;10.07;;;;;;;;;;5055058;28;20631;-82
2022/01/12 10:50:59;;;;;;;21.57;8.07;;;;;;;;;;4988005;28;20254;-85
2022/01/12 10:53:28;;;;;;;23.70;10.10;;;;;;;;;;4992847;28;20224;-85
2022/01/12 10:56:05;;;;;;;18.60;8.50;;;;;;;;;;5034708;28;20220;-85
2022/01/12 10:58:33;;;;;;;22.07;9.50;;;;;;;;;;5040197;28;20206;-85
2022/01/12 11:01:03;;;;;;;24.13;9.63;;;;;;;;;;5036245;28;20310;-85
2022/01/12 11:03:30;;;;;;;19.10;8.93;;;;;;;;;;5038514;28;20218;-86
2022/01/12 11:05:59;;;;;;;18.83;8.67;;;;;;;;;;5037405;28;20616;-86
2022/01/12 11:08:27;;;;;;;15.37;7.97;;;;;;;;;;5039057;28;20271;-86
2022/01/12 11:10:55;;;;;;;21.20;8.80;;;;;;;;;;5037220;28;20207;-85
2022/01/12 11:13:22;;;;;;;28.33;11.87;;;;;;;;;;5029403;28;20200;-85
2022/01/12 11:15:50;;;;;;;20.87;9.73;;;;;;;;;;5036006;28;20231;-85
2022/01/12 11:18:17;;;;;;;23.63;9.07;;;;;;;;;;5036314;28;20207;-84
2022/01/12 11:20:46;;;;;;;17.53;8.73;;;;;;;;;;5042829;28;20230;-85
2022/01/12 11:23:16;;;;;;;19.43;9.50;;;;;;;;;;5034226;28;20271;-84
2022/01/12 11:25:43;;;;;;;21.90;9.37;;;;;;;;;;5028726;28;20251;-84
2022/01/12 11:28:12;;;;;;;22.33;9.20;;;;;;;;;;5035661;28;20282;-83
2022/01/12 11:30:40;;;;;;;18.97;9.33;;;;;;;;;;5035946;28;20229;-86
2022/01/12 11:33:09;;;;;;;20.57;9.30;;;;;;;;;;5029327;28;20234;-86
2022/01/12 11:35:37;;;;;;;23.20;9.27;;;;;;;;;;5033948;28;20237;-84
2022/01/12 11:38:06;;;;;;;21.50;9.37;;;;;;;;;;5036548;28;20619;-84
2022/01/12 11:40:35;;;;;;;20.80;9.90;;;;;;;;;;5036443;28;20227;-85
2022/01/12 11:43:03;;;;;;;25.87;10.73;;;;;;;;;;5038615;28;20274;-85
2022/01/12 11:45:30;;;;;;;23.97;10.80;;;;;;;;;;5035296;28;20235;-85
2022/01/12 11:47:58;;;;;;;22.27;10.17;;;;;;;;;;5035870;28;20231;-84
2022/01/12 11:50:25;;;;;;;24.27;10.60;;;;;;;;;;5028563;28;20281;-84
2022/01/12 11:52:53;;;;;;;26.47;11.07;;;;;;;;;;5037147;28;20295;-85
2022/01/12 11:55:21;;;;;;;21.50;11.00;;;;;;;;;;5038295;28;20395;-84
2022/01/12 11:57:51;;;;;;;25.13;10.57;;;;;;;;;;5034403;28;20260;-84
2022/01/12 12:00:19;;;;;;;25.53;10.47;;;;;;;;;;5032575;28;20241;-83
2022/01/12 12:02:47;;;;;;;30.00;12.70;;;;;;;;;;5032009;28;20195;-84
2022/01/12 12:05:16;;;;;;;26.03;12.00;;;;;;;;;;5030235;28;20247;-84
2022/01/12 12:07:46;;;;;;;28.60;11.67;;;;;;;;;;5032063;28;20651;-84
2022/01/12 12:10:15;;;;;;;23.40;10.73;;;;;;;;;;5037995;28;20206;-83
2022/01/12 12:12:42;;;;;;;25.70;11.00;;;;;;;;;;5030566;28;20718;-82
2022/01/12 12:15:12;;;;;;;23.87;11.53;;;;;;;;;;5033550;28;20231;-82
2022/01/12 12:17:40;;;;;;;22.70;11.23;;;;;;;;;;5030869;28;20257;-83
2022/01/12 12:20:08;;;;;;;28.77;11.53;;;;;;;;;;5030125;28;20215;-83
2022/01/12 12:22:38;;;;;;;27.03;11.93;;;;;;;;;;5030457;28;20199;-82
2022/01/12 12:25:06;;;;;;;22.70;10.37;;;;;;;;;;5031841;28;20234;-83
2022/01/12 12:27:34;;;;;;;24.67;10.73;;;;;;;;;;5032907;28;20286;-83
2022/01/12 12:30:02;;;;;;;21.80;10.67;;;;;;;;;;5032389;28;20303;-83
2022/01/12 12:32:38;;;;;;;21.83;10.60;;;;;;;;;;5035063;28;20292;-82
2022/01/12 12:35:06;;;;;;;23.70;10.83;;;;;;;;;;5032257;28;20229;-83
2022/01/12 12:37:38;;;;;;;23.83;10.47;;;;;;;;;;5032451;28;20211;-83
2022/01/12 12:40:12;;;;;;;25.10;10.77;;;;;;;;;;5026636;28;20648;-83
2022/01/12 12:42:39;;;;;;;23.07;10.40;;;;;;;;;;5026671;28;20630;-83
2022/01/12 12:45:08;;;;;;;22.53;10.17;;;;;;;;;;5031256;28;20718;-83
2022/01/12 12:47:37;;;;;;;23.37;10.60;;;;;;;;;;5038502;28;20205;-83
2022/01/12 12:50:08;;;;;;;24.23;11.23;;;;;;;;;;5033131;28;20287;-83
2022/01/12 12:52:36;;;;;;;21.63;10.50;;;;;;;;;;5034563;28;20695;-84
2022/01/12 12:55:04;;;;;;;25.03;11.27;;;;;;;;;;5033726;28;20681;-83
2022/01/12 12:57:32;;;;;;;20.33;9.97;;;;;;;;;;5030465;28;20203;-84
2022/01/12 13:00:07;;;;;;;23.87;10.83;;;;;;;;;;5030792;28;20717;-84
2022/01/12 13:02:37;;;;;;;23.37;10.53;;;;;;;;;;5032284;28;20316;-84
2022/01/12 13:05:05;;;;;;;35.63;15.20;;;;;;;;;;5031727;28;20238;-83
2022/01/12 13:07:36;;;;;;;25.33;12.13;;;;;;;;;;5030722;28;20708;-85
2022/01/12 13:10:05;;;;;;;40.53;17.63;;;;;;;;;;5033878;28;20218;-84
2022/01/12 13:12:36;;;;;;;27.23;13.20;;;;;;;;;;5035266;28;20218;-85
2022/01/12 13:15:04;;;;;;;24.83;11.40;;;;;;;;;;5037372;28;20242;-84
2022/01/12 13:17:33;;;;;;;27.20;12.43;;;;;;;;;;5038643;28;20698;-83
2022/01/12 13:22:49;;;;;;;21.37;10.70;;;;;;;;;;5039429;28;20238;-84
2022/01/12 13:25:17;;;;;;;22.23;10.40;;;;;;;;;;5037847;28;20317;-84
2022/01/12 13:27:45;;;;;;;18.43;9.87;;;;;;;;;;5039881;28;20231;-82
2022/01/12 13:30:23;;;;;;;18.17;9.77;;;;;;;;;;5035272;28;20216;-82
2022/01/12 13:32:52;;;;;;;24.50;11.67;;;;;;;;;;5037306;28;20639;-83
2022/01/12 13:35:26;;;;;;;25.87;11.67;;;;;;;;;;5038263;28;20254;-82
2022/01/12 13:37:55;;;;;;;30.20;12.53;;;;;;;;;;5040053;28;20259;-82
2022/01/12 13:40:22;;;;;;;25.97;11.57;;;;;;;;;;5036135;28;20551;-82
2022/01/12 13:42:50;;;;;;;22.87;12.40;;;;;;;;;;5033559;28;20293;-82
2022/01/12 13:45:22;;;;;;;25.20;13.90;;;;;;;;;;5036914;28;20322;-82
2022/01/12 13:47:57;;;;;;;30.90;14.33;;;;;;;;;;5033890;28;20311;-83
2022/01/12 13:50:30;;;;;;;22.43;11.63;;;;;;;;;;5036801;28;20215;-82
2022/01/12 13:52:58;;;;;;;25.43;11.67;;;;;;;;;;5040929;28;20230;-83
2022/01/12 13:55:26;;;;;;;27.30;11.60;;;;;;;;;;5035075;28;20229;-83
2022/01/12 13:57:57;;;;;;;22.57;9.80;;;;;;;;;;5032044;28;20294;-84
2022/01/12 14:00:24;;;;;;;22.23;9.17;;;;;;;;;;5031103;28;20683;-82
2022/01/12 14:02:52;;;;;;;19.70;8.20;;;;;;;;;;5034336;28;20234;-83
2022/01/12 14:05:20;;;;;;;15.67;7.63;;;;;;;;;;5036692;28;20231;-82
2022/01/12 14:08:00;;;;;;;13.43;6.83;;;;;;;;;;5036464;28;20210;-83
2022/01/12 14:10:28;;;;;;;11.97;5.87;;;;;;;;;;5030133;28;20211;-83
2022/01/12 14:12:55;;;;;;;14.47;6.10;;;;;;;;;;5036328;28;20207;-82
2022/01/12 14:15:23;;;;;;;11.60;5.27;;;;;;;;;;5035089;28;20593;-81
2022/01/12 14:17:51;;;;;;;14.03;5.77;;;;;;;;;;5033489;28;20694;-82
2022/01/12 14:20:22;;;;;;;10.60;5.00;;;;;;;;;;5035696;28;20208;-82
2022/01/12 14:22:53;;;;;;;11.93;5.27;;;;;;;;;;5035258;28;20507;-82
2022/01/12 14:25:21;;;;;;;14.20;5.90;;;;;;;;;;5034136;28;20653;-83
2022/01/12 14:27:49;;;;;;;12.93;5.50;;;;;;;;;;5030705;28;20218;-82
2022/01/12 14:30:17;;;;;;;11.40;5.63;;;;;;;;;;5035366;28;20200;-83
2022/01/12 14:32:45;;;;;;;15.00;7.60;;;;;;;;;;5036009;28;20688;-82
2022/01/12 14:35:13;;;;;;;13.30;7.00;;;;;;;;;;5033308;28;20652;-82
2022/01/12 14:37:40;;;;;;;13.20;6.27;;;;;;;;;;5031563;28;20314;-82
2022/01/12 14:40:11;;;;;;;15.67;6.60;;;;;;;;;;5032167;28;20667;-83
2022/01/12 14:42:42;;;;;;;18.03;7.43;;;;;;;;;;5033527;28;20227;-82
2022/01/12 14:45:10;;;;;;;13.73;7.37;;;;;;;;;;5034516;28;20338;-82
2022/01/12 14:47:37;;;;;;;15.60;6.80;;;;;;;;;;5036478;28;20243;-81
2022/01/12 14:50:05;;;;;;;14.93;6.90;;;;;;;;;;5033578;28;20246;-82
2022/01/12 14:52:32;;;;;;;16.13;6.70;;;;;;;;;;5032726;28;20199;-82
2022/01/12 14:55:00;;;;;;;17.23;7.07;;;;;;;;;;5028048;28;20200;-82
2022/01/12 14:57:29;;;;;;;16.90;7.23;;;;;;;;;;5026960;28;20222;-81
2022/01/12 14:59:58;;;;;;;11.60;5.70;;;;;;;;;;5025100;28;20224;-82
2022/01/12 15:02:26;;;;;;;10.13;5.17;;;;;;;;;;5026158;28;20281;-82
2022/01/12 15:04:53;;;;;;;12.37;5.23;;;;;;;;;;5027549;28;20204;-82
2022/01/12 15:07:21;;;;;;;11.23;5.60;;;;;;;;;;5026832;28;20680;-81
2022/01/12 15:09:48;;;;;;;19.70;8.63;;;;;;;;;;5028832;28;20319;-81
2022/01/12 15:12:23;;;;;;;25.97;11.03;;;;;;;;;;5029966;28;20202;-82
2022/01/12 15:15:07;;;;;;;25.33;12.60;;;;;;;;;;5029901;28;20257;-83
2022/01/12 15:17:35;;;;;;;17.10;7.30;;;;;;;;;;5032400;28;20211;-82
2022/01/12 15:20:04;;;;;;;15.30;6.50;;;;;;;;;;5030150;28;20296;-82
2022/01/12 15:22:31;;;;;;;17.03;7.47;;;;;;;;;;5028243;28;20236;-82
2022/01/12 15:24:58;;;;;;;15.03;7.07;;;;;;;;;;5029342;28;20608;-81
2022/01/12 15:27:25;;;;;;;14.63;6.97;;;;;;;;;;5031189;28;20298;-82
2022/01/12 15:29:55;;;;;;;30.00;15.00;;;;;;;;;;5031721;28;20210;-82
2022/01/12 15:32:22;;;;;;;19.73;9.43;;;;;;;;;;5022331;28;20201;-82
2022/01/12 15:34:49;;;;;;;36.03;14.10;;;;;;;;;;5025381;28;20295;-82
2022/01/12 15:37:17;;;;;;;27.23;13.27;;;;;;;;;;5022661;28;20234;-82
2022/01/12 15:39:44;;;;;;;25.53;10.53;;;;;;;;;;5024214;28;20644;-82
2022/01/12 15:42:11;;;;;;;23.77;10.27;;;;;;;;;;5027695;28;20254;-82
2022/01/12 15:44:38;;;;;;;22.47;10.00;;;;;;;;;;5023673;28;20235;-82
2022/01/12 15:47:09;;;;;;;23.73;11.53;;;;;;;;;;5024737;28;20247;-82
2022/01/12 15:49:36;;;;;;;20.97;8.97;;;;;;;;;;5032494;28;20226;-82
2022/01/12 15:52:03;;;;;;;21.73;9.23;;;;;;;;;;5027061;28;20576;-82
2022/01/12 15:54:31;;;;;;;20.73;9.70;;;;;;;;;;5027466;28;20212;-82
2022/01/12 15:56:58;;;;;;;22.83;10.07;;;;;;;;;;5025332;28;20315;-82
2022/01/12 15:59:26;;;;;;;23.57;9.77;;;;;;;;;;5027320;28;20203;-83
2022/01/12 16:01:53;;;;;;;22.07;10.33;;;;;;;;;;5025908;28;20259;-82